createdAt,value
2022-09-26T00:00:22.194Z,99225.94
2022-09-26T00:03:24.930Z,99242.75
2022-09-26T00:06:28.143Z,99234.63
2022-09-26T00:09:30.821Z,99231.44
2022-09-26T00:12:33.514Z,99234.03
2022-09-26T00:15:37.493Z,99235.97
2022-09-26T00:18:40.374Z,99230.09
2022-09-26T00:21:43.091Z,99231.50
2022-09-26T00:24:45.760Z,99237.09
2022-09-26T00:27:48.469Z,99236.13
2022-09-26T00:30:52.509Z,99228.97
2022-09-26T00:33:55.310Z,99237.38
2022-09-26T00:36:58.351Z,99233.31
2022-09-26T00:40:01.059Z,99223.94
2022-09-26T00:43:03.710Z,99223.78
2022-09-26T00:46:13.138Z,99233.00
2022-09-26T00:49:19.070Z,99238.34
2022-09-26T00:52:25.100Z,99234.03
2022-09-26T00:55:29.180Z,99229.25
2022-09-26T00:58:33.232Z,99223.41
2022-09-26T01:01:38.205Z,99222.38
2022-09-26T01:04:42.610Z,99223.81
2022-09-26T01:07:45.554Z,99215.00
2022-09-26T01:10:50.163Z,99223.66
2022-09-26T01:13:53.622Z,99216.25
2022-09-26T01:16:57.735Z,99215.88
2022-09-26T01:20:08.956Z,99217.34
2022-09-26T01:23:33.906Z,99216.41
2022-09-26T01:26:54.368Z,99204.50
2022-09-26T01:30:04.823Z,99216.66
2022-09-26T01:33:16.455Z,99216.41
2022-09-26T01:36:33.985Z,99213.34
2022-09-26T01:39:42.836Z,99211.25
2022-09-26T01:42:51.126Z,99212.06
2022-09-26T01:46:00.205Z,99220.63
2022-09-26T01:49:09.843Z,99215.88
2022-09-26T01:52:17.363Z,99205.78
2022-09-26T01:55:22.720Z,99201.47
2022-09-26T01:58:28.991Z,99202.94
2022-09-26T02:01:36.209Z,99189.78
2022-09-26T02:04:41.805Z,99188.31
2022-09-26T02:07:48.419Z,99185.19
2022-09-26T02:10:52.773Z,99189.22
2022-09-26T02:13:57.502Z,99201.13
2022-09-26T02:17:03.334Z,99191.88
2022-09-26T02:20:07.607Z,99199.34
2022-09-26T02:23:10.339Z,99184.50
2022-09-26T02:26:12.989Z,99198.78
2022-09-26T02:29:16.251Z,99201.72
2022-09-26T02:32:22.161Z,99204.03
2022-09-26T02:35:42.649Z,99207.34
2022-09-26T02:38:45.435Z,99199.59
2022-09-26T02:41:49.835Z,99192.75
2022-09-26T02:45:06.867Z,99193.03
2022-09-26T02:48:24.811Z,99193.72
2022-09-26T02:51:35.793Z,99199.78
2022-09-26T02:54:44.160Z,99198.47
2022-09-26T02:57:50.266Z,99204.94
2022-09-26T03:00:56.491Z,99208.88
2022-09-26T03:04:03.535Z,99205.59
2022-09-26T03:07:09.161Z,99191.22
2022-09-26T03:10:12.914Z,99196.97
2022-09-26T03:13:17.048Z,99194.84
2022-09-26T03:16:21.177Z,99201.00
2022-09-26T03:19:30.257Z,99198.72
2022-09-26T03:22:33.508Z,99189.94
2022-09-26T03:25:36.403Z,99189.34
2022-09-26T03:28:39.473Z,99188.97
2022-09-26T03:31:42.153Z,99181.53
2022-09-26T03:34:46.329Z,99186.72
2022-09-26T03:37:49.071Z,99176.78
2022-09-26T03:40:52.742Z,99175.66
2022-09-26T03:43:57.595Z,99165.13
2022-09-26T03:47:00.269Z,99167.81
2022-09-26T03:50:05.108Z,99166.31
2022-09-26T03:53:07.768Z,99165.44
2022-09-26T03:56:11.519Z,99165.88
2022-09-26T03:59:14.272Z,99159.00
2022-09-26T04:02:17.716Z,99163.75
2022-09-26T04:05:21.875Z,99166.03
2022-09-26T04:08:24.562Z,99167.56
2022-09-26T04:11:27.280Z,99172.03
2022-09-26T04:14:29.945Z,99170.75
2022-09-26T04:17:32.643Z,99167.56
2022-09-26T04:20:36.697Z,99173.28
2022-09-26T04:23:40.589Z,99175.38
2022-09-26T04:26:44.190Z,99162.25
2022-09-26T04:29:47.024Z,99162.34
2022-09-26T04:32:49.714Z,99165.47
2022-09-26T04:35:53.936Z,99161.25
2022-09-26T04:38:58.375Z,99167.69
2022-09-26T04:42:01.076Z,99165.44
2022-09-26T04:45:03.727Z,99160.69
2022-09-26T04:48:06.465Z,99166.56
2022-09-26T04:51:11.583Z,99158.97
2022-09-26T04:54:14.327Z,99160.22
2022-09-26T04:57:19.683Z,99156.41
2022-09-26T05:00:23.385Z,99163.44
2022-09-26T05:03:26.192Z,99162.69
2022-09-26T05:06:30.279Z,99179.00
2022-09-26T05:09:35.910Z,99189.84
2022-09-26T05:12:39.673Z,99198.03
2022-09-26T05:15:42.884Z,99193.97
2022-09-26T05:18:45.606Z,99194.22
2022-09-26T05:21:49.600Z,99185.56
2022-09-26T05:25:09.838Z,99189.44
2022-09-26T05:28:12.658Z,99200.47
2022-09-26T05:31:15.582Z,99206.66
2022-09-26T05:34:20.144Z,99208.25
2022-09-26T05:37:24.684Z,99203.25
2022-09-26T05:40:45.044Z,99202.19
2022-09-26T05:43:48.185Z,99196.47
2022-09-26T05:46:52.162Z,99185.41
2022-09-26T05:49:54.896Z,99194.72
2022-09-26T05:52:59.721Z,99197.00
2022-09-26T05:56:02.631Z,99194.09
2022-09-26T05:59:05.653Z,99184.56
2022-09-26T06:02:08.992Z,99190.97
2022-09-26T06:05:11.792Z,99194.31
2022-09-26T06:08:17.320Z,99198.53
2022-09-26T06:11:22.667Z,99185.09
2022-09-26T06:14:26.631Z,99192.44
2022-09-26T06:17:29.332Z,99192.69
2022-09-26T06:20:33.133Z,99179.69
2022-09-26T06:23:37.353Z,99184.13
2022-09-26T06:26:40.037Z,99187.72
2022-09-26T06:29:42.683Z,99187.97
2022-09-26T06:32:46.419Z,99201.75
2022-09-26T06:36:00.055Z,99191.19
2022-09-26T06:39:04.179Z,99187.91
2022-09-26T06:42:07.453Z,99189.03
2022-09-26T06:45:11.364Z,99179.97
2022-09-26T06:48:14.333Z,99176.84
2022-09-26T06:51:16.963Z,99177.44
2022-09-26T06:54:21.090Z,99183.19
2022-09-26T06:57:24.052Z,99174.41
2022-09-26T07:00:29.733Z,99172.72
2022-09-26T07:03:32.436Z,99176.47
2022-09-26T07:06:35.122Z,99180.38
2022-09-26T07:09:41.115Z,99170.56
2022-09-26T07:12:45.933Z,99174.56
2022-09-26T07:15:48.781Z,99178.81
2022-09-26T07:18:51.663Z,99175.19
2022-09-26T07:21:55.304Z,99174.00
2022-09-26T07:24:59.319Z,99175.72
2022-09-26T07:28:02.728Z,99186.16
2022-09-26T07:31:05.795Z,99186.22
2022-09-26T07:34:09.024Z,99180.72
2022-09-26T07:37:11.980Z,99184.28
2022-09-26T07:40:16.742Z,99172.28
2022-09-26T07:43:24.132Z,99174.38
2022-09-26T07:46:56.048Z,99167.28
2022-09-26T07:50:15.107Z,99170.50
2022-09-26T07:53:19.126Z,99171.56
2022-09-26T07:56:23.151Z,99167.50
2022-09-26T07:59:27.183Z,99168.19
2022-09-26T08:02:34.528Z,99160.38
2022-09-26T08:05:37.444Z,99158.06
2022-09-26T08:08:41.416Z,99154.19
2022-09-26T08:11:45.685Z,99153.53
2022-09-26T08:14:49.579Z,99140.84
2022-09-26T08:17:52.734Z,99151.75
2022-09-26T08:20:56.422Z,99152.41
2022-09-26T08:23:59.227Z,99151.25
2022-09-26T08:27:05.360Z,99148.91
2022-09-26T08:30:10.578Z,99139.53
2022-09-26T08:33:13.522Z,99145.06
2022-09-26T08:36:17.140Z,99147.06
2022-09-26T08:39:19.899Z,99158.25
2022-09-26T08:42:32.938Z,99160.31
2022-09-26T08:45:56.369Z,99152.81
2022-09-26T08:49:14.910Z,99145.63
2022-09-26T08:52:31.165Z,99140.94
2022-09-26T08:55:35.957Z,99137.56
2022-09-26T08:58:41.911Z,99129.84
2022-09-26T09:01:46.820Z,99138.50
2022-09-26T09:04:54.164Z,99145.22
2022-09-26T09:07:58.196Z,99137.66
2022-09-26T09:11:06.167Z,99118.50
2022-09-26T09:14:18.895Z,99120.47
2022-09-26T09:17:27.721Z,99130.19
2022-09-26T09:20:36.584Z,99125.06
2022-09-26T09:23:46.796Z,99134.88
2022-09-26T09:30:38.596Z,99141.91
2022-09-26T09:33:42.960Z,99132.84
2022-09-26T09:36:49.851Z,99127.34
2022-09-26T09:39:53.306Z,99113.59
2022-09-26T09:42:59.093Z,99128.50
2022-09-26T09:46:05.576Z,99129.03
2022-09-26T09:49:17.686Z,99104.66
2022-09-26T09:52:34.184Z,99105.25
2022-09-26T09:55:39.764Z,99119.31
2022-09-26T09:58:59.266Z,99114.78
2022-09-26T10:02:13.280Z,99129.91
2022-09-26T10:05:22.557Z,99134.09
2022-09-26T10:08:31.343Z,99134.56
2022-09-26T10:11:41.584Z,99129.22
2022-09-26T10:14:47.291Z,99125.69
2022-09-26T10:21:34.076Z,99116.34
2022-09-26T10:24:40.849Z,99106.16
2022-09-26T10:27:51.851Z,99101.50
2022-09-26T10:30:56.558Z,99112.69
2022-09-26T10:34:22.080Z,99091.97
2022-09-26T10:37:25.798Z,99101.22
2022-09-26T10:40:48.526Z,99094.94
2022-09-26T10:43:53.356Z,99086.13
2022-09-26T10:46:59.374Z,99077.06
2022-09-26T10:50:07.633Z,99071.16
2022-09-26T10:53:14.345Z,99081.78
2022-09-26T10:56:21.553Z,99075.19
2022-09-26T10:59:26.751Z,99081.34
2022-09-26T11:02:29.568Z,99085.78
2022-09-26T11:05:53.739Z,99071.13
2022-09-26T11:09:03.019Z,99086.56
2022-09-26T11:12:23.498Z,99084.88
2022-09-26T11:15:26.233Z,99085.84
2022-09-26T11:18:34.760Z,99072.84
2022-09-26T11:21:41.943Z,99084.50
2022-09-26T11:24:47.618Z,99083.16
2022-09-26T11:27:52.489Z,99075.94
2022-09-26T11:30:58.929Z,99069.72
2022-09-26T11:34:04.314Z,99078.13
2022-09-26T11:37:22.498Z,99071.75
2022-09-26T11:40:33.459Z,99072.31
2022-09-26T11:43:44.966Z,99076.31
2022-09-26T11:46:55.135Z,99073.63
2022-09-26T11:50:13.212Z,99085.44
2022-09-26T11:53:43.066Z,99073.41
2022-09-26T11:56:55.190Z,99074.31
2022-09-26T12:00:07.358Z,99074.19
2022-09-26T12:03:27.813Z,99072.22
2022-09-26T12:06:33.405Z,99076.41
2022-09-26T12:09:52.609Z,99087.78
2022-09-26T12:13:03.351Z,99073.66
2022-09-26T12:16:12.352Z,99070.75
2022-09-26T12:19:21.706Z,99084.47
2022-09-26T12:22:29.495Z,99072.03
2022-09-26T12:25:39.646Z,99069.59
2022-09-26T12:28:58.646Z,99081.78
2022-09-26T12:32:14.825Z,99076.16
2022-09-26T12:35:29.717Z,99075.91
2022-09-26T12:38:43.289Z,99075.66
2022-09-26T12:41:56.427Z,99069.22
2022-09-26T12:45:18.262Z,99063.84
2022-09-26T12:48:31.296Z,99061.38
2022-09-26T12:51:42.065Z,99069.50
2022-09-26T12:54:59.505Z,99066.16
2022-09-26T12:58:16.855Z,99055.09
2022-09-26T13:01:43.621Z,99064.75
2022-09-26T13:05:17.615Z,99053.19
2022-09-26T13:08:24.977Z,99057.53
2022-09-26T13:11:32.859Z,99054.59
2022-09-26T13:14:55.246Z,99049.50
2022-09-26T13:18:02.355Z,99044.47
2022-09-26T13:21:12.137Z,99046.50
2022-09-26T13:24:18.728Z,99033.09
2022-09-26T13:27:23.200Z,99037.69
2022-09-26T13:30:29.347Z,99036.69
2022-09-26T13:33:34.896Z,99028.47
2022-09-26T13:36:42.335Z,99035.19
2022-09-26T13:39:49.170Z,99032.00
2022-09-26T13:43:00.742Z,99038.66
2022-09-26T13:46:10.776Z,99034.66
2022-09-26T13:49:25.167Z,99031.31
2022-09-26T13:52:35.561Z,99040.19
2022-09-26T13:55:38.329Z,99043.16
2022-09-26T13:58:41.066Z,99043.16
2022-09-26T14:01:58.711Z,99037.81
2022-09-26T14:05:20.109Z,99037.50
2022-09-26T14:08:51.271Z,99032.50
2022-09-26T14:12:18.234Z,99051.31
2022-09-26T14:15:22.798Z,99040.22
2022-09-26T14:18:29.859Z,99040.59
2022-09-26T14:21:58.857Z,99044.31
2022-09-26T14:25:03.736Z,99031.72
2022-09-26T14:28:10.445Z,99038.09
2022-09-26T14:31:17.731Z,99029.13
2022-09-26T14:34:22.946Z,99036.31
2022-09-26T14:37:33.556Z,99023.13
2022-09-26T14:40:38.023Z,99016.44
2022-09-26T14:43:41.805Z,99018.28
2022-09-26T14:46:47.255Z,99027.69
2022-09-26T14:50:00.980Z,99018.69
2022-09-26T14:53:11.559Z,99011.69
2022-09-26T14:56:17.641Z,99002.13
2022-09-26T14:59:44.005Z,99002.47
2022-09-26T15:02:50.485Z,99009.63
2022-09-26T15:05:53.352Z,99009.41
2022-09-26T15:08:56.359Z,99007.09
2022-09-26T15:12:00.978Z,99011.66
2022-09-26T15:15:14.015Z,99019.84
2022-09-26T15:18:21.091Z,99008.66
2022-09-26T15:21:32.782Z,99008.53
2022-09-26T15:24:36.937Z,99003.88
2022-09-26T15:27:45.989Z,99004.19
2022-09-26T15:30:50.567Z,99014.19
2022-09-26T15:33:56.418Z,99009.88
2022-09-26T15:36:59.988Z,99010.50
2022-09-26T15:40:12.080Z,99004.16
2022-09-26T15:43:21.491Z,98996.81
2022-09-26T15:46:24.380Z,99002.34
2022-09-26T15:49:28.586Z,98994.16
2022-09-26T15:52:33.268Z,98995.16
2022-09-26T15:55:38.805Z,98991.78
2022-09-26T15:58:46.957Z,98999.84
2022-09-26T16:01:50.022Z,99001.50
2022-09-26T16:04:54.885Z,99000.69
2022-09-26T16:07:58.806Z,98997.84
2022-09-26T16:11:02.439Z,98995.16
2022-09-26T16:14:08.608Z,99006.88
2022-09-26T16:17:14.694Z,99003.03
2022-09-26T16:20:25.449Z,99005.53
2022-09-26T16:23:28.608Z,98996.69
2022-09-26T16:26:32.414Z,98996.84
2022-09-26T16:29:37.910Z,98997.88
2022-09-26T16:32:40.694Z,98995.50
2022-09-26T16:35:46.794Z,99001.34
2022-09-26T16:38:53.964Z,99004.69
2022-09-26T16:42:03.375Z,99027.22
2022-09-26T16:45:14.726Z,99040.78
2022-09-26T16:48:37.369Z,99037.28
2022-09-26T16:51:41.654Z,99032.69
2022-09-26T16:54:44.701Z,99037.56
2022-09-26T16:57:51.915Z,99040.25
2022-09-26T17:01:13.292Z,99045.28
2022-09-26T17:04:17.837Z,99041.09
2022-09-26T17:07:20.844Z,99032.38
2022-09-26T17:10:25.798Z,99041.41
2022-09-26T17:13:33.189Z,99035.19
2022-09-26T17:16:37.342Z,99035.88
2022-09-26T17:19:42.007Z,99022.34
2022-09-26T17:22:45.044Z,99011.81
2022-09-26T17:25:54.070Z,99018.53
2022-09-26T17:28:59.391Z,99028.22
2022-09-26T17:32:09.587Z,99018.69
2022-09-26T17:35:14.738Z,99011.66
2022-09-26T17:38:19.200Z,99009.31
2022-09-26T17:41:25.446Z,99000.50
2022-09-26T17:44:28.539Z,98993.63
2022-09-26T17:47:37.776Z,98988.44
2022-09-26T17:50:42.985Z,98976.75
2022-09-26T17:53:51.074Z,98977.44
2022-09-26T17:56:54.493Z,98983.63
2022-09-26T17:59:58.661Z,98966.59
2022-09-26T18:03:04.356Z,98967.56
2022-09-26T18:06:12.563Z,98966.09
2022-09-26T18:09:17.479Z,98961.59
2022-09-26T18:12:24.035Z,98963.66
2022-09-26T18:15:27.623Z,98947.47
2022-09-26T18:18:36.868Z,98934.41
2022-09-26T18:21:40.504Z,98932.28
2022-09-26T18:24:45.441Z,98933.13
2022-09-26T18:27:51.313Z,98929.59
2022-09-26T18:30:58.309Z,98931.44
2022-09-26T18:34:04.400Z,98928.31
2022-09-26T18:37:07.207Z,98930.19
2022-09-26T18:40:13.214Z,98931.94
2022-09-26T18:43:20.978Z,98925.81
2022-09-26T18:46:25.345Z,98927.31
2022-09-26T18:49:31.710Z,98930.97
2022-09-26T18:52:34.992Z,98920.31
2022-09-26T18:55:57.781Z,98908.59
2022-09-26T18:59:01.533Z,98915.78
2022-09-26T19:02:06.178Z,98923.81
2022-09-26T19:05:13.224Z,98917.31
2022-09-26T19:08:28.077Z,98929.00
2022-09-26T19:11:36.981Z,98926.34
2022-09-26T19:14:40.235Z,98904.31
2022-09-26T19:17:44.677Z,98904.31
2022-09-26T19:20:49.984Z,98899.81
2022-09-26T19:23:53.318Z,98907.81
2022-09-26T19:26:59.102Z,98898.66
2022-09-26T19:30:03.916Z,98909.34
2022-09-26T19:33:06.763Z,98905.31
2022-09-26T19:36:12.257Z,98908.19
2022-09-26T19:39:16.432Z,98910.03
2022-09-26T19:42:19.229Z,98906.84
2022-09-26T19:45:25.013Z,98910.03
2022-09-26T19:48:28.129Z,98912.00
2022-09-26T19:51:37.849Z,98901.78
2022-09-26T19:54:40.601Z,98888.31
2022-09-26T19:57:45.727Z,98894.31
2022-09-26T20:00:50.114Z,98903.63
2022-09-26T20:03:53.414Z,98898.28
2022-09-26T20:06:58.498Z,98900.28
2022-09-26T20:10:02.284Z,98900.00
2022-09-26T20:13:05.035Z,98895.50
2022-09-26T20:16:10.259Z,98884.16
2022-09-26T20:19:16.965Z,98877.63
2022-09-26T20:22:21.996Z,98868.97
2022-09-26T20:25:27.052Z,98872.56
2022-09-26T20:28:30.284Z,98866.47
2022-09-26T20:31:32.966Z,98859.59
2022-09-26T20:34:35.735Z,98863.78
2022-09-26T20:37:40.956Z,98865.91
2022-09-26T20:40:43.943Z,98863.28
2022-09-26T20:43:49.197Z,98866.75
2022-09-26T20:46:53.562Z,98863.44
2022-09-26T20:49:58.472Z,98856.72
2022-09-26T20:53:02.551Z,98859.59
2022-09-26T20:56:05.235Z,98849.59
2022-09-26T20:59:08.553Z,98843.25
2022-09-26T21:02:27.050Z,98845.09
2022-09-26T21:05:29.767Z,98836.22
2022-09-26T21:08:33.878Z,98837.22
2022-09-26T21:11:36.581Z,98840.06
2022-09-26T21:14:39.261Z,98842.38
2022-09-26T21:17:42.857Z,98840.41
2022-09-26T21:20:46.630Z,98837.91
2022-09-26T21:23:50.837Z,98838.59
2022-09-26T21:26:53.495Z,98842.56
2022-09-26T21:29:56.163Z,98836.22
2022-09-26T21:32:59.950Z,98829.38
2022-09-26T21:36:02.844Z,98825.88
2022-09-26T21:39:07.118Z,98832.06
2022-09-26T21:42:09.749Z,98831.38
2022-09-26T21:45:12.888Z,98827.22
2022-09-26T21:48:16.160Z,98831.88
2022-09-26T21:51:20.449Z,98832.22
2022-09-26T21:54:26.641Z,98827.06
2022-09-26T21:57:31.251Z,98827.19
2022-09-26T22:00:34.045Z,98824.69
2022-09-26T22:03:37.276Z,98826.34
2022-09-26T22:06:40.018Z,98830.41
2022-09-26T22:09:44.160Z,98830.22
2022-09-26T22:12:47.053Z,98823.56
2022-09-26T22:15:49.873Z,98818.22
2022-09-26T22:18:52.547Z,98811.19
2022-09-26T22:21:55.840Z,98810.00
2022-09-26T22:25:03.913Z,98803.16
2022-09-26T22:28:06.603Z,98801.34
2022-09-26T22:31:09.457Z,98794.31
2022-09-26T22:34:12.360Z,98793.50
2022-09-26T22:37:15.088Z,98794.50
2022-09-26T22:40:19.243Z,98774.78
2022-09-26T22:43:21.950Z,98764.59
2022-09-26T22:46:24.844Z,98755.53
2022-09-26T22:49:27.572Z,98766.41
2022-09-26T22:52:30.255Z,98763.91
2022-09-26T22:55:34.316Z,98759.56
2022-09-26T22:58:38.837Z,98751.44
2022-09-26T23:01:41.589Z,98745.22
2022-09-26T23:04:50.427Z,98749.75
2022-09-26T23:07:53.947Z,98743.22
2022-09-26T23:10:58.035Z,98752.22
2022-09-26T23:14:00.725Z,98746.75
2022-09-26T23:17:03.569Z,98752.09
2022-09-26T23:20:06.936Z,98749.22
2022-09-26T23:23:10.182Z,98741.03
2022-09-26T23:26:16.997Z,98737.53
2022-09-26T23:29:19.683Z,98732.84
2022-09-26T23:32:22.358Z,98740.38
2022-09-26T23:35:24.999Z,98735.69
2022-09-26T23:38:27.916Z,98742.38
2022-09-26T23:41:32.005Z,98744.06
2022-09-26T23:44:35.003Z,98727.69
2022-09-26T23:47:37.750Z,98734.53
2022-09-26T23:50:40.399Z,98729.00
2022-09-26T23:53:43.107Z,98725.03
2022-09-26T23:56:47.126Z,98726.19
2022-09-26T23:59:49.771Z,98718.00
